createdAt,value
2023-03-06T00:00:20.733Z,65.90
2023-03-06T00:02:47.912Z,65.80
2023-03-06T00:05:15.655Z,65.70
2023-03-06T00:07:43.714Z,65.80
2023-03-06T00:10:16.030Z,66.10
2023-03-06T00:12:43.182Z,66.30
2023-03-06T00:15:11.393Z,66.30
2023-03-06T00:17:38.691Z,66.30
2023-03-06T00:20:07.840Z,66.50
2023-03-06T00:22:34.909Z,66.80
2023-03-06T00:25:01.731Z,67.00
2023-03-06T00:27:28.551Z,67.20
2023-03-06T00:30:00.108Z,67.50
2023-03-06T00:32:27.979Z,67.60
2023-03-06T00:34:56.809Z,67.70
2023-03-06T00:37:25.391Z,67.70
2023-03-06T00:39:52.325Z,67.60
2023-03-06T00:42:19.948Z,67.60
2023-03-06T00:44:46.903Z,67.70
2023-03-06T00:47:17.241Z,67.90
2023-03-06T00:49:45.230Z,67.70
2023-03-06T00:52:13.408Z,67.50
2023-03-06T00:54:41.236Z,67.40
2023-03-06T00:57:08.995Z,67.30
2023-03-06T00:59:36.298Z,67.10
2023-03-06T01:02:04.139Z,67.30
2023-03-06T01:04:32.034Z,67.50
2023-03-06T01:06:59.074Z,67.70
2023-03-06T01:09:26.108Z,67.80
2023-03-06T01:11:54.172Z,68.10
2023-03-06T01:14:21.399Z,68.30
2023-03-06T01:16:48.615Z,68.30
2023-03-06T01:19:17.975Z,68.30
2023-03-06T01:21:45.682Z,68.60
2023-03-06T01:24:12.599Z,68.80
2023-03-06T01:26:39.430Z,69.00
2023-03-06T01:29:06.450Z,69.10
2023-03-06T01:31:33.564Z,68.90
2023-03-06T01:34:00.782Z,68.90
2023-03-06T01:36:27.550Z,68.90
2023-03-06T01:38:54.385Z,68.90
2023-03-06T01:41:21.697Z,68.90
2023-03-06T01:43:48.764Z,68.90
2023-03-06T01:46:34.567Z,68.80
2023-03-06T01:49:22.604Z,68.60
2023-03-06T01:51:57.626Z,68.30
2023-03-06T01:54:28.370Z,68.10
2023-03-06T01:57:05.635Z,68.00
2023-03-06T01:59:35.244Z,68.20
2023-03-06T02:02:03.834Z,68.30
2023-03-06T02:04:31.405Z,68.30
2023-03-06T02:07:00.103Z,68.30
2023-03-06T02:09:30.175Z,68.40
2023-03-06T02:11:57.822Z,68.60
2023-03-06T02:14:25.023Z,68.50
2023-03-06T02:16:52.033Z,68.50
2023-03-06T02:19:28.703Z,68.30
2023-03-06T02:21:55.808Z,68.40
2023-03-06T02:24:32.370Z,68.60
2023-03-06T02:27:01.076Z,68.70
2023-03-06T02:29:30.004Z,68.70
2023-03-06T02:32:00.348Z,68.70
2023-03-06T02:34:27.611Z,68.60
2023-03-06T02:37:00.257Z,68.70
2023-03-06T02:39:29.746Z,68.90
2023-03-06T02:41:56.650Z,69.10
2023-03-06T02:44:24.252Z,69.10
2023-03-06T02:46:51.089Z,69.20
2023-03-06T02:49:17.998Z,69.30
2023-03-06T02:51:44.906Z,69.30
2023-03-06T02:54:12.801Z,69.10
2023-03-06T02:56:39.583Z,69.10
2023-03-06T02:59:07.448Z,69.10
2023-03-06T03:01:34.771Z,69.10
2023-03-06T03:04:03.678Z,69.30
2023-03-06T03:06:30.579Z,69.60
2023-03-06T03:08:57.801Z,69.70
2023-03-06T03:11:24.774Z,70.00
2023-03-06T03:13:51.897Z,70.10
2023-03-06T03:16:23.315Z,70.20
2023-03-06T03:18:51.160Z,70.50
2023-03-06T03:21:20.544Z,70.60
2023-03-06T03:23:48.712Z,70.60
2023-03-06T03:26:20.677Z,70.30
2023-03-06T03:29:08.173Z,70.20
2023-03-06T03:31:34.958Z,70.30
2023-03-06T03:34:02.921Z,70.50
2023-03-06T03:36:33.316Z,70.70
2023-03-06T03:39:00.317Z,70.60
2023-03-06T03:41:27.621Z,70.40
2023-03-06T03:43:54.482Z,70.30
2023-03-06T03:46:22.628Z,70.50
2023-03-06T03:48:50.862Z,70.80
2023-03-06T03:51:17.841Z,71.00
2023-03-06T03:53:49.288Z,71.00
2023-03-06T03:56:20.041Z,71.00
2023-03-06T03:58:55.970Z,70.90
2023-03-06T04:01:24.532Z,70.90
2023-03-06T04:03:51.380Z,71.10
2023-03-06T04:06:19.152Z,71.30
2023-03-06T04:08:46.843Z,71.30
2023-03-06T04:11:13.737Z,71.20
2023-03-06T04:13:40.767Z,71.30
2023-03-06T04:16:08.122Z,71.40
2023-03-06T04:18:37.474Z,71.40
2023-03-06T04:21:06.141Z,71.30
2023-03-06T04:23:33.605Z,71.40
2023-03-06T04:26:00.626Z,71.40
2023-03-06T04:28:27.993Z,71.50
2023-03-06T04:30:55.212Z,71.50
2023-03-06T04:33:22.484Z,71.50
2023-03-06T04:35:50.537Z,71.50
2023-03-06T04:38:22.872Z,71.60
2023-03-06T04:40:49.910Z,71.60
2023-03-06T04:43:17.153Z,71.50
2023-03-06T04:45:44.200Z,71.50
2023-03-06T04:48:14.850Z,71.60
2023-03-06T04:50:41.978Z,72.50
2023-03-06T04:53:09.127Z,71.70
2023-03-06T04:55:36.029Z,71.80
2023-03-06T04:58:03.110Z,72.70
2023-03-06T05:00:31.751Z,71.80
2023-03-06T05:03:00.158Z,71.90
2023-03-06T05:05:27.743Z,71.90
2023-03-06T05:07:55.204Z,72.00
2023-03-06T05:10:22.127Z,72.00
2023-03-06T05:12:48.960Z,72.20
2023-03-06T05:15:16.062Z,72.10
2023-03-06T05:17:43.575Z,72.00
2023-03-06T05:20:11.837Z,72.00
2023-03-06T05:22:39.034Z,71.90
2023-03-06T05:25:06.460Z,71.70
2023-03-06T05:27:33.452Z,71.70
2023-03-06T05:30:00.786Z,71.50
2023-03-06T05:32:27.631Z,71.60
2023-03-06T05:34:54.733Z,71.50
2023-03-06T05:37:23.088Z,71.50
2023-03-06T05:39:51.008Z,71.50
2023-03-06T05:42:18.417Z,71.50
2023-03-06T05:44:45.604Z,71.50
2023-03-06T05:47:12.790Z,71.70
2023-03-06T05:49:39.968Z,71.30
2023-03-06T05:52:08.149Z,71.30
2023-03-06T05:54:36.770Z,71.30
2023-03-06T05:57:04.962Z,71.50
2023-03-06T05:59:33.241Z,71.50
2023-03-06T06:02:01.333Z,71.50
2023-03-06T06:04:28.338Z,71.60
2023-03-06T06:07:00.219Z,71.70
2023-03-06T06:09:28.036Z,71.80
2023-03-06T06:11:59.960Z,71.80
2023-03-06T06:14:26.943Z,71.80
2023-03-06T06:16:54.388Z,71.80
2023-03-06T06:19:22.744Z,71.60
2023-03-06T06:21:52.141Z,71.60
2023-03-06T06:24:21.575Z,71.50
2023-03-06T06:26:51.685Z,71.50
2023-03-06T06:29:18.634Z,71.50
2023-03-06T06:31:45.546Z,71.30
2023-03-06T06:34:13.604Z,71.30
2023-03-06T06:36:41.413Z,71.30
2023-03-06T06:39:09.022Z,71.50
2023-03-06T06:41:59.297Z,71.50
2023-03-06T06:44:22.912Z,71.50
2023-03-06T06:47:21.359Z,71.80
2023-03-06T06:49:37.658Z,71.80
2023-03-06T06:52:05.636Z,71.90
2023-03-06T06:54:35.458Z,72.00
2023-03-06T06:57:02.444Z,72.10
2023-03-06T06:59:29.208Z,72.20
2023-03-06T07:01:56.224Z,72.20
2023-03-06T07:04:23.322Z,72.30
2023-03-06T07:06:50.265Z,72.30
2023-03-06T07:09:17.270Z,72.40
2023-03-06T07:11:44.105Z,72.50
2023-03-06T07:14:10.992Z,72.50
2023-03-06T07:16:37.829Z,72.40
2023-03-06T07:19:04.764Z,72.50
2023-03-06T07:21:32.106Z,72.60
2023-03-06T07:23:59.159Z,72.60
2023-03-06T07:26:27.874Z,72.50
2023-03-06T07:28:55.019Z,72.60
2023-03-06T07:31:25.583Z,72.60
2023-03-06T07:33:54.531Z,72.50
2023-03-06T07:36:22.652Z,72.40
2023-03-06T07:38:49.660Z,72.40
2023-03-06T07:41:17.279Z,72.40
2023-03-06T07:43:45.671Z,72.30
2023-03-06T07:46:14.571Z,71.90
2023-03-06T07:48:42.295Z,71.60
2023-03-06T07:51:14.851Z,71.30
2023-03-06T07:53:42.014Z,71.10
2023-03-06T07:56:09.545Z,71.20
2023-03-06T07:58:37.806Z,71.10
2023-03-06T08:01:10.066Z,70.70
2023-03-06T08:03:37.678Z,70.20
2023-03-06T08:06:15.997Z,69.70
2023-03-06T08:08:44.523Z,69.20
2023-03-06T08:11:13.111Z,68.80
2023-03-06T08:13:40.753Z,68.50
2023-03-06T08:16:08.665Z,68.40
2023-03-06T08:18:35.844Z,67.80
2023-03-06T08:21:12.652Z,68.00
2023-03-06T08:23:40.277Z,68.10
2023-03-06T08:26:22.348Z,67.60
2023-03-06T08:28:51.600Z,66.50
2023-03-06T08:31:30.877Z,66.80
2023-03-06T08:34:00.537Z,66.60
2023-03-06T08:36:28.147Z,66.20
2023-03-06T08:38:55.297Z,66.10
2023-03-06T08:41:23.363Z,65.50
2023-03-06T08:43:51.031Z,64.50
2023-03-06T08:46:19.230Z,63.80
2023-03-06T08:48:49.564Z,63.90
2023-03-06T08:51:17.570Z,63.40
2023-03-06T08:53:44.692Z,63.40
2023-03-06T08:56:26.474Z,63.20
2023-03-06T08:58:54.678Z,63.30
2023-03-06T09:01:26.914Z,62.90
2023-03-06T09:03:55.824Z,62.70
2023-03-06T09:06:23.475Z,62.80
2023-03-06T09:08:54.339Z,62.70
2023-03-06T09:11:24.202Z,62.30
2023-03-06T09:13:51.474Z,62.00
2023-03-06T09:16:18.424Z,61.10
2023-03-06T09:18:45.609Z,60.70
2023-03-06T09:21:12.583Z,60.80
2023-03-06T09:23:39.700Z,60.20
2023-03-06T09:26:07.621Z,59.70
2023-03-06T09:28:39.296Z,60.10
2023-03-06T09:31:12.408Z,60.30
2023-03-06T09:33:39.595Z,59.30
2023-03-06T09:36:07.954Z,59.40
2023-03-06T09:38:36.605Z,59.10
2023-03-06T09:41:26.782Z,59.20
2023-03-06T09:44:14.690Z,57.40
2023-03-06T09:47:11.382Z,54.80
2023-03-06T09:49:55.603Z,53.90
2023-03-06T09:52:34.264Z,54.40
2023-03-06T09:55:17.676Z,54.20
2023-03-06T09:58:07.526Z,52.50
2023-03-06T10:00:39.697Z,52.40
2023-03-06T10:03:31.632Z,52.00
2023-03-06T10:06:15.205Z,52.50
2023-03-06T10:09:26.209Z,52.30
2023-03-06T10:12:04.019Z,52.10
2023-03-06T10:14:42.664Z,50.90
2023-03-06T10:17:17.743Z,51.70
2023-03-06T10:19:47.627Z,50.60
2023-03-06T10:22:23.765Z,51.10
2023-03-06T10:25:00.134Z,51.40
2023-03-06T10:27:27.015Z,51.30
2023-03-06T10:30:11.015Z,51.60
2023-03-06T10:32:59.845Z,51.90
2023-03-06T10:35:40.394Z,53.10
2023-03-06T10:38:26.605Z,51.50
2023-03-06T10:41:12.686Z,51.10
2023-03-06T10:43:45.425Z,51.20
2023-03-06T10:46:14.730Z,51.20
2023-03-06T10:48:42.539Z,51.60
2023-03-06T10:51:17.817Z,51.20
2023-03-06T10:54:18.141Z,51.10
2023-03-06T10:56:46.663Z,51.30
2023-03-06T10:59:25.515Z,51.00
2023-03-06T11:01:58.978Z,51.50
2023-03-06T11:04:36.401Z,51.50
2023-03-06T11:07:20.066Z,51.90
2023-03-06T11:10:18.991Z,52.70
2023-03-06T11:13:22.991Z,52.60
2023-03-06T11:15:59.763Z,51.00
2023-03-06T11:18:36.422Z,49.90
2023-03-06T11:21:07.373Z,48.50
2023-03-06T11:23:46.553Z,49.90
2023-03-06T11:26:16.413Z,50.30
2023-03-06T11:29:23.254Z,50.60
2023-03-06T11:31:59.894Z,50.50
2023-03-06T11:34:55.543Z,50.20
2023-03-06T11:37:33.653Z,51.90
2023-03-06T11:40:17.651Z,52.20
2023-03-06T11:43:11.688Z,52.50
2023-03-06T11:45:46.406Z,54.00
2023-03-06T11:48:17.510Z,53.60
2023-03-06T11:50:50.702Z,53.60
2023-03-06T11:53:25.515Z,53.20
2023-03-06T11:56:11.025Z,55.20
2023-03-06T11:58:56.325Z,54.60
2023-03-06T12:01:47.409Z,54.60
2023-03-06T12:04:29.050Z,54.60
2023-03-06T12:07:07.559Z,54.80
2023-03-06T12:09:57.574Z,55.60
2023-03-06T12:13:00.583Z,56.40
2023-03-06T12:15:58.056Z,56.50
2023-03-06T12:18:43.905Z,57.00
2023-03-06T12:21:26.082Z,55.10
2023-03-06T12:24:14.202Z,55.50
2023-03-06T12:26:51.178Z,56.50
2023-03-06T12:29:37.050Z,56.20
2023-03-06T12:32:16.915Z,56.80
2023-03-06T12:34:58.961Z,56.40
2023-03-06T12:37:44.393Z,55.90
2023-03-06T12:40:43.840Z,55.20
2023-03-06T12:44:02.333Z,56.40
2023-03-06T12:46:30.529Z,56.20
2023-03-06T12:49:23.089Z,55.60
2023-03-06T12:51:58.717Z,54.80
2023-03-06T12:54:29.404Z,55.10
2023-03-06T12:56:58.177Z,55.00
2023-03-06T12:59:54.925Z,57.40
2023-03-06T13:02:46.153Z,57.10
2023-03-06T13:05:22.340Z,56.50
2023-03-06T13:08:04.225Z,56.30
2023-03-06T13:10:36.347Z,56.80
2023-03-06T13:13:24.829Z,56.90
2023-03-06T13:16:10.075Z,56.80
2023-03-06T13:18:36.961Z,56.20
2023-03-06T13:21:04.522Z,56.70
2023-03-06T13:23:35.441Z,56.30
2023-03-06T13:26:09.413Z,56.10
2023-03-06T13:28:50.331Z,56.00
2023-03-06T13:31:52.082Z,56.90
2023-03-06T13:34:57.632Z,55.10
2023-03-06T13:37:24.633Z,55.70
2023-03-06T13:39:59.908Z,56.60
2023-03-06T13:42:26.820Z,55.70
2023-03-06T13:44:55.658Z,55.90
2023-03-06T13:50:44.123Z,55.70
2023-03-06T13:53:45.770Z,54.80
2023-03-06T13:56:26.245Z,54.50
2023-03-06T13:59:30.650Z,53.00
2023-03-06T14:02:35.008Z,54.00
2023-03-06T14:05:03.996Z,54.80
2023-03-06T14:07:40.511Z,54.80
2023-03-06T14:10:18.696Z,55.40
2023-03-06T14:12:51.335Z,53.70
2023-03-06T14:15:21.009Z,52.50
2023-03-06T14:18:05.607Z,52.30
2023-03-06T14:20:45.006Z,53.00
2023-03-06T14:23:38.166Z,53.20
2023-03-06T14:26:15.571Z,52.20
2023-03-06T14:28:44.741Z,51.70
2023-03-06T14:31:38.312Z,51.50
2023-03-06T14:34:07.350Z,50.90
2023-03-06T14:36:46.696Z,50.50
2023-03-06T14:39:43.996Z,51.10
2023-03-06T14:42:20.852Z,51.60
2023-03-06T14:44:49.683Z,51.50
2023-03-06T14:47:29.969Z,51.70
2023-03-06T14:50:35.910Z,50.60
2023-03-06T14:53:16.658Z,48.90
2023-03-06T14:55:53.225Z,49.10
2023-03-06T14:58:35.964Z,49.30
2023-03-06T15:01:07.052Z,48.20
2023-03-06T15:03:43.060Z,46.40
2023-03-06T15:06:15.756Z,47.70
2023-03-06T15:08:46.097Z,48.30
2023-03-06T15:11:13.084Z,47.70
2023-03-06T15:13:40.256Z,47.80
2023-03-06T15:16:23.236Z,48.40
2023-03-06T15:19:02.188Z,48.40
2023-03-06T15:21:35.668Z,49.40
2023-03-06T15:24:22.573Z,50.10
2023-03-06T15:26:55.300Z,50.20
2023-03-06T15:29:23.112Z,50.10
2023-03-06T15:31:50.294Z,50.20
2023-03-06T15:34:23.585Z,50.60
2023-03-06T15:36:54.044Z,52.10
2023-03-06T15:39:26.998Z,53.40
2023-03-06T15:41:59.061Z,55.10
2023-03-06T15:44:26.403Z,55.90
2023-03-06T15:47:07.689Z,57.10
2023-03-06T15:49:37.962Z,58.10
2023-03-06T15:52:08.704Z,59.70
2023-03-06T15:54:35.991Z,60.50
2023-03-06T15:57:08.454Z,61.00
2023-03-06T15:59:42.864Z,61.60
2023-03-06T16:02:27.816Z,62.00
2023-03-06T16:04:54.647Z,62.40
2023-03-06T16:07:21.739Z,62.90
2023-03-06T16:09:48.917Z,63.50
2023-03-06T16:12:19.330Z,63.60
2023-03-06T16:14:47.694Z,63.90
2023-03-06T16:17:15.173Z,63.70
2023-03-06T16:19:42.341Z,63.90
2023-03-06T16:22:09.145Z,64.20
2023-03-06T16:24:37.185Z,63.70
2023-03-06T16:27:05.019Z,64.10
2023-03-06T16:29:31.977Z,64.20
2023-03-06T16:32:01.625Z,64.50
2023-03-06T16:34:28.774Z,64.90
2023-03-06T16:36:55.679Z,64.90
2023-03-06T16:39:24.369Z,65.00
2023-03-06T16:41:52.127Z,65.10
2023-03-06T16:44:20.330Z,65.10
2023-03-06T16:46:49.416Z,65.20
2023-03-06T16:49:21.155Z,65.30
2023-03-06T16:51:48.139Z,65.20
2023-03-06T16:54:15.179Z,65.00
2023-03-06T16:56:42.339Z,64.80
2023-03-06T16:59:09.960Z,65.00
2023-03-06T17:01:37.598Z,64.90
2023-03-06T17:04:04.658Z,65.00
2023-03-06T17:06:31.513Z,65.00
2023-03-06T17:08:59.798Z,64.90
2023-03-06T17:11:27.317Z,64.80
2023-03-06T17:13:55.421Z,65.20
2023-03-06T17:16:22.964Z,64.80
2023-03-06T17:18:50.016Z,64.20
2023-03-06T17:21:17.193Z,63.60
2023-03-06T17:23:44.793Z,63.30
2023-03-06T17:26:13.808Z,63.10
2023-03-06T17:28:41.027Z,63.30
2023-03-06T17:31:14.236Z,63.30
2023-03-06T17:33:41.632Z,64.10
2023-03-06T17:36:10.111Z,63.60
2023-03-06T17:38:37.218Z,63.40
2023-03-06T17:41:09.124Z,63.60
2023-03-06T17:43:37.250Z,63.40
2023-03-06T17:46:06.172Z,63.40
2023-03-06T17:48:33.715Z,63.60
2023-03-06T17:51:00.789Z,64.10
2023-03-06T17:53:28.280Z,64.50
2023-03-06T17:55:55.752Z,64.50
2023-03-06T17:58:22.576Z,64.70
2023-03-06T18:00:49.519Z,65.20
2023-03-06T18:03:16.360Z,65.70
2023-03-06T18:05:43.843Z,65.80
2023-03-06T18:08:10.646Z,66.00
2023-03-06T18:10:41.461Z,66.30
2023-03-06T18:13:09.640Z,66.60
2023-03-06T18:15:41.489Z,67.00
2023-03-06T18:18:08.835Z,66.90
2023-03-06T18:20:41.123Z,67.00
2023-03-06T18:23:08.155Z,67.40
2023-03-06T18:25:35.631Z,67.50
2023-03-06T18:28:02.692Z,67.40
2023-03-06T18:30:29.497Z,67.30
2023-03-06T18:32:56.546Z,67.00
2023-03-06T18:35:23.489Z,67.20
2023-03-06T18:37:50.522Z,67.20
2023-03-06T18:40:17.452Z,67.50
2023-03-06T18:42:44.302Z,67.70
2023-03-06T18:45:12.830Z,67.80
2023-03-06T18:47:40.769Z,67.90
2023-03-06T18:50:08.094Z,68.20
2023-03-06T18:52:35.552Z,67.80
2023-03-06T18:55:02.556Z,67.90
2023-03-06T18:57:30.481Z,68.00
2023-03-06T18:59:57.612Z,68.10
2023-03-06T19:02:24.535Z,68.00
2023-03-06T19:04:53.067Z,68.10
2023-03-06T19:07:20.004Z,68.50
2023-03-06T19:09:48.995Z,68.40
2023-03-06T19:12:16.738Z,68.60
2023-03-06T19:14:44.609Z,69.00
2023-03-06T19:17:11.420Z,69.00
2023-03-06T19:19:38.434Z,69.10
2023-03-06T19:22:05.424Z,69.30
2023-03-06T19:24:32.413Z,69.60
2023-03-06T19:26:59.311Z,69.80
2023-03-06T19:29:26.186Z,69.80
2023-03-06T19:31:53.209Z,70.20
2023-03-06T19:34:20.068Z,70.10
2023-03-06T19:36:49.679Z,70.30
2023-03-06T19:39:16.517Z,70.40
2023-03-06T19:41:43.516Z,70.50
2023-03-06T19:44:12.261Z,70.60
2023-03-06T19:46:40.715Z,70.90
2023-03-06T19:49:12.018Z,71.00
2023-03-06T19:51:38.973Z,71.20
2023-03-06T19:54:05.918Z,71.40
2023-03-06T19:56:33.702Z,71.80
2023-03-06T19:59:00.836Z,71.70
2023-03-06T20:01:28.423Z,71.90
2023-03-06T20:03:59.815Z,72.10
2023-03-06T20:06:33.668Z,72.20
2023-03-06T20:09:02.373Z,72.50
2023-03-06T20:11:30.184Z,73.50
2023-03-06T20:14:01.984Z,72.80
2023-03-06T20:16:29.556Z,72.90
2023-03-06T20:18:58.968Z,73.10
2023-03-06T20:21:27.984Z,73.10
2023-03-06T20:23:56.991Z,73.30
2023-03-06T20:26:25.081Z,73.50
2023-03-06T20:28:52.246Z,73.70
2023-03-06T20:31:21.650Z,73.90
2023-03-06T20:33:51.132Z,73.90
2023-03-06T20:36:22.884Z,74.10
2023-03-06T20:38:50.588Z,74.20
2023-03-06T20:41:20.215Z,74.20
2023-03-06T20:43:47.423Z,74.30
2023-03-06T20:46:15.076Z,74.30
2023-03-06T20:48:42.989Z,75.20
2023-03-06T20:51:17.663Z,74.30
2023-03-06T20:53:45.839Z,75.30
2023-03-06T20:56:14.396Z,74.60
2023-03-06T20:58:41.429Z,74.60
2023-03-06T21:01:08.504Z,74.70
2023-03-06T21:03:35.414Z,75.70
2023-03-06T21:06:02.547Z,74.80
2023-03-06T21:08:30.909Z,74.80
2023-03-06T21:10:57.731Z,74.80
2023-03-06T21:13:24.636Z,74.80
2023-03-06T21:15:51.618Z,74.90
2023-03-06T21:18:18.600Z,75.20
2023-03-06T21:20:45.547Z,75.20
2023-03-06T21:23:12.613Z,75.40
2023-03-06T21:25:48.929Z,75.60
2023-03-06T21:28:16.591Z,75.80
2023-03-06T21:30:45.343Z,75.90
2023-03-06T21:33:13.542Z,75.90
2023-03-06T21:35:41.934Z,76.00
2023-03-06T21:38:09.100Z,76.90
2023-03-06T21:40:36.040Z,76.00
2023-03-06T21:43:03.419Z,76.00
2023-03-06T21:45:30.923Z,75.80
2023-03-06T21:47:58.624Z,75.60
2023-03-06T21:50:26.986Z,75.50
2023-03-06T21:52:56.070Z,75.50
2023-03-06T21:55:23.159Z,75.50
2023-03-06T21:57:51.637Z,75.50
2023-03-06T22:00:19.535Z,75.50
2023-03-06T22:02:47.197Z,75.60
2023-03-06T22:05:14.165Z,75.50
2023-03-06T22:07:41.284Z,75.50
2023-03-06T22:10:12.058Z,75.50
2023-03-06T22:12:39.934Z,75.40
2023-03-06T22:15:07.981Z,75.60
2023-03-06T22:17:34.831Z,75.70
2023-03-06T22:20:01.829Z,75.70
2023-03-06T22:22:28.727Z,75.30
2023-03-06T22:24:55.624Z,74.90
2023-03-06T22:27:23.109Z,74.80
2023-03-06T22:29:49.946Z,74.80
2023-03-06T22:32:16.922Z,74.80
2023-03-06T22:34:43.919Z,74.70
2023-03-06T22:37:10.682Z,74.60
2023-03-06T22:39:37.669Z,74.30
2023-03-06T22:42:04.771Z,74.00
2023-03-06T22:44:31.505Z,73.80
2023-03-06T22:46:58.402Z,73.60
2023-03-06T22:49:25.303Z,73.50
2023-03-06T22:51:52.179Z,73.70
2023-03-06T22:54:19.005Z,73.80
2023-03-06T22:56:46.088Z,73.90
2023-03-06T22:59:12.847Z,73.90
2023-03-06T23:01:39.830Z,74.00
2023-03-06T23:04:11.024Z,74.00
2023-03-06T23:06:40.203Z,74.00
2023-03-06T23:09:16.238Z,74.00
2023-03-06T23:12:01.727Z,74.10
2023-03-06T23:14:49.667Z,74.20
2023-03-06T23:17:35.242Z,74.20
2023-03-06T23:20:21.785Z,74.20
2023-03-06T23:23:07.850Z,74.20
2023-03-06T23:25:40.775Z,74.30
2023-03-06T23:28:07.857Z,74.30
2023-03-06T23:30:34.809Z,74.40
2023-03-06T23:33:01.711Z,74.30
2023-03-06T23:35:28.553Z,74.30
2023-03-06T23:37:55.447Z,74.30
2023-03-06T23:40:22.628Z,74.20
2023-03-06T23:42:50.230Z,74.20
2023-03-06T23:45:17.127Z,75.10
2023-03-06T23:47:43.976Z,75.00
2023-03-06T23:50:11.564Z,74.20
2023-03-06T23:52:39.028Z,73.90
2023-03-06T23:55:06.896Z,74.80
2023-03-06T23:57:33.757Z,73.90
